Time;durP1;ratioP1;P1;durP2;ratioP2;P2;SDS_P1;SDS_P2;PMS_P1;PMS_P2;Temp;Humidity;BMP_temperature;BMP_pressure;BME280_temperature;BME280_humidity;BME280_pressure;Samples;Min_cycle;Max_cycle;Signal;HPM_P1;HPM_P2
2021/04/01 00:00:12;;;;;;;9.82;4.88;;;;;;;10.40;53.60;95747.88;5008657;28;20076;-67
2021/04/01 00:02:38;;;;;;;8.90;4.93;;;;;;;10.43;53.56;95751.81;5008541;28;20034;-66
2021/04/01 00:05:05;;;;;;;8.65;4.15;;;;;;;10.44;53.96;95751.53;4990982;28;20080;-66
2021/04/01 00:07:31;;;;;;;7.43;4.22;;;;;;;10.34;53.84;95733.84;4992628;28;20387;-66
2021/04/01 00:09:57;;;;;;;8.98;6.18;;;;;;;10.43;54.08;95743.81;5008710;28;20179;-67
2021/04/01 00:12:22;;;;;;;14.80;4.72;;;;;;;10.37;54.54;95737.78;5008377;28;20189;-67
2021/04/01 00:14:48;;;;;;;8.52;5.00;;;;;;;10.34;54.83;95736.50;4990744;28;20077;-66
2021/04/01 00:17:13;;;;;;;10.98;4.57;;;;;;;10.29;54.44;95719.84;5008246;28;20069;-65
2021/04/01 00:19:39;;;;;;;9.10;4.38;;;;;;;10.50;54.56;95746.94;5010337;28;20106;-67
2021/04/01 00:22:05;;;;;;;17.42;4.55;;;;;;;10.30;54.77;95722.22;5008277;28;20407;-66
2021/04/01 00:24:31;;;;;;;8.98;4.53;;;;;;;10.41;54.87;95734.28;5008508;28;20408;-66
2021/04/01 00:26:56;;;;;;;10.98;4.63;;;;;;;10.35;54.66;95721.34;5008328;28;20480;-67
2021/04/01 00:29:22;;;;;;;12.52;4.43;;;;;;;10.48;54.66;95749.06;5008276;28;20044;-66
2021/04/01 00:31:47;;;;;;;6.75;4.15;;;;;;;10.13;55.26;95690.78;5008325;28;20030;-67
2021/04/01 00:34:13;;;;;;;9.85;4.38;;;;;;;10.29;54.82;95709.22;5010364;28;20025;-66
2021/04/01 00:36:38;;;;;;;11.30;4.28;;;;;;;10.48;54.69;95739.22;5011642;28;20053;-66
2021/04/01 00:39:04;;;;;;;9.45;4.13;;;;;;;10.25;55.60;95706.31;5011821;28;20041;-67
2021/04/01 00:41:29;;;;;;;6.57;4.28;;;;;;;10.40;55.50;95716.75;5011678;28;20038;-66
2021/04/01 00:43:55;;;;;;;4.85;3.88;;;;;;;10.33;55.11;95710.97;5012005;28;20452;-67
2021/04/01 00:46:20;;;;;;;7.25;3.63;;;;;;;10.20;55.70;95685.09;5013850;28;20433;-66
2021/04/01 00:48:45;;;;;;;9.30;4.43;;;;;;;10.50;55.66;95726.44;5011805;28;20042;-66
2021/04/01 00:51:11;;;;;;;9.98;4.47;;;;;;;10.25;55.29;95679.75;5011719;28;20052;-67
2021/04/01 00:53:36;;;;;;;9.65;4.13;;;;;;;10.33;55.39;95694.22;5011799;28;20042;-66
2021/04/01 00:56:02;;;;;;;7.45;4.10;;;;;;;10.13;55.22;95663.38;5011783;28;20140;-66
2021/04/01 00:58:29;;;;;;;9.63;3.85;;;;;;;10.45;55.60;95715.88;5012338;28;20034;-66
2021/04/01 01:03:49;;;;;;;7.82;4.03;;;;;;;10.32;55.46;95698.75;4941188;28;20059;-65
2021/04/01 01:06:14;;;;;;;12.35;4.45;;;;;;;10.30;55.84;95695.63;4994121;28;20037;-65
2021/04/01 01:08:39;;;;;;;6.80;4.05;;;;;;;10.54;55.89;95726.63;5011447;28;20235;-66
2021/04/01 01:11:05;;;;;;;10.50;4.07;;;;;;;10.57;55.84;95731.41;5011543;28;20041;-65
2021/04/01 01:13:30;;;;;;;18.42;5.47;;;;;;;10.34;55.48;95686.00;5013081;28;20037;-66
2021/04/01 01:15:56;;;;;;;9.57;4.78;;;;;;;10.43;55.65;95698.63;5011566;28;20034;-70
2021/04/01 01:18:21;;;;;;;8.65;3.95;;;;;;;10.52;55.52;95707.53;5011192;28;20061;-66
2021/04/01 01:20:46;;;;;;;9.48;4.63;;;;;;;10.64;55.76;95724.63;5011187;28;20069;-65
2021/04/01 01:23:12;;;;;;;10.93;4.30;;;;;;;10.53;55.35;95706.44;5011074;28;20039;-65
2021/04/01 01:25:37;;;;;;;8.50;4.38;;;;;;;10.48;55.74;95688.69;5013111;28;20030;-66
2021/04/01 01:28:05;;;;;;;6.88;4.05;;;;;;;10.57;55.33;95694.16;5010968;28;20034;-65
2021/04/01 01:30:33;;;;;;;5.25;4.05;;;;;;;10.56;55.22;95689.91;5011349;28;20038;-65
2021/04/01 01:33:01;;;;;;;9.98;3.90;;;;;;;10.66;55.13;95697.75;5010989;28;20065;-66
2021/04/01 01:35:30;;;;;;;9.02;4.32;;;;;;;10.57;55.17;95678.97;5011039;28;20069;-67
2021/04/01 01:37:58;;;;;;;8.65;4.22;;;;;;;10.80;55.63;95714.56;5010890;28;20030;-66
2021/04/01 01:40:25;;;;;;;7.68;3.72;;;;;;;10.70;54.97;95697.94;5012950;28;20053;-66
2021/04/01 01:42:53;;;;;;;7.25;4.30;;;;;;;10.81;54.64;95710.00;5010647;28;20681;-66
2021/04/01 01:45:19;;;;;;;9.38;3.95;;;;;;;10.83;55.14;95708.63;4993230;28;20558;-67
2021/04/01 01:47:45;;;;;;;8.88;3.47;;;;;;;10.80;54.78;95711.88;5009467;28;20077;-66
2021/04/01 01:50:13;;;;;;;9.57;3.92;;;;;;;10.66;55.56;95687.88;5010475;28;20510;-67
2021/04/01 01:52:39;;;;;;;11.55;4.18;;;;;;;10.71;55.68;95704.84;5012453;28;20034;-66
2021/04/01 01:55:07;;;;;;;7.20;4.13;;;;;;;10.72;55.70;95701.91;5010753;28;20034;-65
2021/04/01 01:57:34;;;;;;;14.57;3.70;;;;;;;10.54;55.90;95674.22;5010261;28;20525;-66
2021/04/01 02:00:00;;;;;;;7.68;3.90;;;;;;;10.64;55.95;95689.25;5010550;28;20137;-66
2021/04/01 02:02:26;;;;;;;8.25;4.03;;;;;;;10.57;55.56;95686.19;5010348;28;20034;-65
2021/04/01 02:04:51;;;;;;;8.48;3.80;;;;;;;10.54;55.81;95690.19;5010572;28;20027;-65
2021/04/01 02:07:17;;;;;;;9.40;3.53;;;;;;;10.40;55.52;95663.56;5012197;28;20072;-66
2021/04/01 02:09:49;;;;;;;11.60;3.90;;;;;;;10.49;55.97;95690.25;5010588;28;20522;-66
2021/04/01 02:12:15;;;;;;;5.60;3.95;;;;;;;10.52;55.88;95691.56;5010094;28;20145;-65
2021/04/01 02:14:41;;;;;;;6.82;3.90;;;;;;;10.46;56.37;95693.53;4992390;28;20112;-66
2021/04/01 02:17:08;;;;;;;4.80;3.25;;;;;;;10.48;55.99;95690.56;4992326;28;20041;-67
2021/04/01 02:19:33;;;;;;;7.82;3.95;;;;;;;10.32;56.17;95672.19;4994435;28;20053;-65
2021/04/01 02:21:59;;;;;;;6.93;3.80;;;;;;;10.23;56.11;95668.56;4992220;28;20037;-67
2021/04/01 02:24:24;;;;;;;9.18;3.75;;;;;;;10.18;55.77;95655.34;5010126;28;20053;-65
2021/04/01 02:26:54;;;;;;;6.90;3.83;;;;;;;10.34;56.00;95680.66;4992317;28;20038;-68
2021/04/01 02:29:20;;;;;;;8.48;3.65;;;;;;;10.37;56.18;95688.06;5009970;28;20045;-65
2021/04/01 02:31:45;;;;;;;7.30;3.97;;;;;;;10.01;56.34;95639.13;4992121;28;20030;-65
2021/04/01 02:34:10;;;;;;;8.25;3.97;;;;;;;10.18;56.13;95658.00;5011672;28;20022;-66
2021/04/01 02:36:36;;;;;;;13.23;3.90;;;;;;;10.11;56.41;95647.72;5009881;28;20096;-66
2021/04/01 02:39:01;;;;;;;6.15;3.78;;;;;;;10.30;56.38;95684.19;5009516;28;20034;-66
2021/04/01 02:41:26;;;;;;;6.78;3.70;;;;;;;10.17;56.66;95669.72;4991865;28;20038;-66
2021/04/01 02:43:52;;;;;;;12.75;3.85;;;;;;;9.97;56.32;95633.56;5008994;28;20045;-66
2021/04/01 02:46:17;;;;;;;7.43;4.45;;;;;;;10.00;56.53;95638.31;5010397;28;20045;-66
2021/04/01 02:48:42;;;;;;;11.65;4.18;;;;;;;9.97;56.71;95632.78;4991592;28;20034;-65
2021/04/01 02:51:08;;;;;;;9.30;3.95;;;;;;;10.07;56.02;95648.59;4991804;28;20049;-66
2021/04/01 02:53:33;;;;;;;13.68;4.15;;;;;;;9.84;56.85;95605.06;4991735;28;20052;-66
2021/04/01 02:55:59;;;;;;;6.40;4.00;;;;;;;10.07;56.32;95652.03;5009525;28;20156;-66
2021/04/01 02:58:25;;;;;;;6.57;4.22;;;;;;;10.24;56.76;95674.72;5010948;28;20044;-66
2021/04/01 03:00:51;;;;;;;7.57;3.95;;;;;;;10.18;56.92;95660.66;5009363;28;20061;-66
2021/04/01 03:03:30;;;;;;;8.65;3.58;;;;;;;9.96;56.66;95649.81;5009242;28;20045;-66
2021/04/01 03:05:57;;;;;;;7.53;4.50;;;;;;;10.07;56.38;95656.56;4991834;28;20062;-66
2021/04/01 03:08:23;;;;;;;10.40;4.03;;;;;;;9.94;57.02;95636.81;4991358;28;20041;-65
2021/04/01 03:10:48;;;;;;;9.07;3.97;;;;;;;10.14;56.54;95664.97;5009313;28;20073;-65
2021/04/01 03:13:14;;;;;;;10.45;4.00;;;;;;;10.10;56.63;95663.97;5010902;28;20436;-66
2021/04/01 03:15:39;;;;;;;4.93;2.90;;;;;;;10.09;56.61;95651.78;5009286;28;20070;-66
2021/04/01 03:18:05;;;;;;;4.90;3.47;;;;;;;10.13;56.67;95666.84;5008736;28;20125;-66
2021/04/01 03:20:30;;;;;;;8.55;3.45;;;;;;;10.10;56.46;95658.66;5009123;28;20133;-66
2021/04/01 03:22:56;;;;;;;9.50;4.13;;;;;;;9.96;56.51;95636.53;5008765;28;20037;-66
2021/04/01 03:25:21;;;;;;;5.72;3.30;;;;;;;9.98;56.76;95637.03;5011033;28;20026;-66
2021/04/01 03:27:46;;;;;;;10.68;3.28;;;;;;;10.10;56.32;95656.78;5008776;28;20065;-67
2021/04/01 03:30:14;;;;;;;9.32;3.40;;;;;;;10.11;55.95;95645.06;5009090;28;20037;-65
2021/04/01 03:32:45;;;;;;;8.40;2.88;;;;;;;10.04;55.57;95649.97;4991086;28;20050;-66
2021/04/01 03:35:16;;;;;;;4.85;3.30;;;;;;;10.10;55.67;95650.69;4991440;28;20042;-65
2021/04/01 03:37:43;;;;;;;10.37;3.70;;;;;;;9.95;55.47;95626.97;5010848;28;20076;-65
2021/04/01 03:40:10;;;;;;;9.15;3.30;;;;;;;10.10;55.74;95651.47;5008683;28;20081;-66
2021/04/01 03:42:37;;;;;;;13.52;3.92;;;;;;;10.05;55.58;95643.56;5008865;28;20041;-66
2021/04/01 03:45:03;;;;;;;6.65;3.47;;;;;;;10.01;55.98;95639.91;5008722;28;20034;-66
2021/04/01 03:47:28;;;;;;;7.30;3.42;;;;;;;10.16;55.76;95668.13;5008707;28;20084;-66
2021/04/01 03:49:54;;;;;;;6.40;3.35;;;;;;;10.04;55.39;95651.84;5008926;28;20021;-66
2021/04/01 03:52:19;;;;;;;7.53;3.30;;;;;;;10.04;55.27;95651.84;5010645;28;20486;-66
2021/04/01 03:54:50;;;;;;;6.75;3.33;;;;;;;9.92;55.68;95638.97;5008825;28;20034;-65
2021/04/01 03:57:16;;;;;;;5.97;3.50;;;;;;;9.98;55.76;95637.84;4990926;28;20034;-66
2021/04/01 04:00:30;;;;;;;6.32;2.90;;;;;;;10.04;55.56;95654.50;5008368;28;20113;-66
2021/04/01 04:05:17;;;;;;;11.85;3.20;;;;;;;10.10;55.69;95658.66;5008725;28;20431;-66
2021/04/01 04:15:23;;;;;;;8.33;3.00;;;;;;;9.92;55.60;95630.19;5012662;28;20399;-65
2021/04/01 04:17:49;;;;;;;5.97;3.00;;;;;;;9.82;55.26;95610.66;5012172;28;20277;-65
2021/04/01 04:20:15;;;;;;;6.80;2.65;;;;;;;9.86;55.48;95638.25;4994795;28;20057;-65
2021/04/01 04:22:41;;;;;;;11.57;3.03;;;;;;;9.84;55.61;95639.63;5013981;28;20105;-67
2021/04/01 04:25:08;;;;;;;6.60;2.90;;;;;;;9.93;55.58;95645.06;5012450;28;20452;-65
2021/04/01 04:29:59;;;;;;;14.18;3.15;;;;;;;9.88;55.34;95641.41;5012457;28;20060;-66
2021/04/01 04:32:29;;;;;;;6.57;3.50;;;;;;;9.75;55.38;95626.19;4994249;28;20034;-66
2021/04/01 04:34:55;;;;;;;5.82;2.80;;;;;;;9.80;55.97;95644.72;5012093;28;20026;-65
2021/04/01 04:37:21;;;;;;;9.13;3.53;;;;;;;9.62;55.90;95616.25;5013560;28;20053;-67
2021/04/01 04:39:47;;;;;;;13.00;3.55;;;;;;;9.77;56.07;95645.25;5011903;28;20052;-65
2021/04/01 04:42:12;;;;;;;12.50;3.55;;;;;;;9.64;56.04;95624.75;5011741;28;20125;-66
2021/04/01 04:44:38;;;;;;;12.85;3.55;;;;;;;9.69;55.98;95635.28;5012100;28;20109;-67
2021/04/01 04:47:03;;;;;;;8.95;3.25;;;;;;;9.77;55.68;95647.91;5011656;28;21879;-67
2021/04/01 04:49:29;;;;;;;8.20;3.78;;;;;;;9.70;56.20;95634.22;5013675;28;20042;-66
2021/04/01 04:51:55;;;;;;;7.78;3.10;;;;;;;9.78;56.20;95652.19;5011385;28;20046;-66
2021/04/01 04:54:20;;;;;;;9.35;3.90;;;;;;;9.62;55.98;95626.88;5011672;28;20034;-66
2021/04/01 04:56:47;;;;;;;9.73;3.40;;;;;;;9.31;55.63;95578.66;5011633;28;20422;-67
2021/04/01 05:04:59;;;;;;;6.15;2.95;;;;;;;10.01;55.80;95668.34;5012025;28;20048;-66
2021/04/01 05:07:25;;;;;;;10.13;2.90;;;;;;;9.95;55.43;95651.69;5013169;28;20014;-65
2021/04/01 05:09:50;;;;;;;10.93;3.47;;;;;;;9.84;55.26;95629.78;5011532;28;20042;-68
2021/04/01 05:12:16;;;;;;;11.38;3.20;;;;;;;10.00;55.31;95640.97;4993698;28;20042;-66
2021/04/01 05:14:41;;;;;;;6.88;3.15;;;;;;;10.03;54.65;95631.63;5011117;28;20045;-68
2021/04/01 05:17:07;;;;;;;9.90;2.67;;;;;;;10.32;54.31;95660.75;5011002;28;20109;-67
2021/04/01 05:19:34;;;;;;;11.10;2.95;;;;;;;10.06;54.58;95612.47;5013071;28;20048;-66
2021/04/01 05:24:27;;;;;;;7.88;3.17;;;;;;;10.21;54.11;95606.91;5011227;28;20042;-66
2021/04/01 05:30:08;;;;;;;7.55;2.78;;;;;;;10.77;52.54;95663.78;5011185;28;20030;-68
2021/04/01 05:32:14;;;;;;;9.27;3.35;;;;;;;10.71;51.94;95639.13;5002641;28;20042;-65
2021/04/01 05:34:39;;;;;;;5.63;2.55;;;;;;;10.67;52.40;95624.81;5013033;28;20029;-66
2021/04/01 05:37:06;;;;;;;10.77;3.00;;;;;;;10.72;52.12;95610.66;5010939;28;20100;-65
2021/04/01 05:39:36;;;;;;;5.28;2.63;;;;;;;10.99;51.47;95642.63;5010931;28;20117;-67
2021/04/01 05:42:02;;;;;;;6.70;2.50;;;;;;;11.06;51.33;95636.94;5010490;28;20073;-66
2021/04/01 05:44:37;;;;;;;4.28;2.22;;;;;;;11.19;51.12;95639.59;5011063;28;20084;-64
2021/04/01 05:47:25;;;;;;;7.25;2.50;;;;;;;11.17;50.03;95639.09;5008320;28;20030;-66
2021/04/01 05:58:02;;;;;;;6.80;2.28;;;;;;;11.87;48.63;95674.50;5010268;28;20038;-66
2021/04/01 06:03:25;;;;;;;8.90;2.17;;;;;;;12.20;47.62;95685.81;5010481;28;20076;-63
2021/04/01 06:06:00;;;;;;;7.30;2.38;;;;;;;12.27;46.64;95675.50;5010495;28;20368;-63
2021/04/01 06:08:28;;;;;;;7.00;2.70;;;;;;;12.46;46.65;95672.69;4992569;28;20590;-62
2021/04/01 06:10:54;;;;;;;4.90;2.00;;;;;;;12.64;46.53;95674.41;5010208;28;20026;-62
2021/04/01 06:13:23;;;;;;;11.10;2.60;;;;;;;12.72;46.30;95663.00;5011758;28;20511;-64
2021/04/01 06:15:50;;;;;;;10.00;2.55;;;;;;;12.04;45.77;95661.38;4994908;28;20034;-64
2021/04/01 06:18:19;;;;;;;5.20;2.25;;;;;;;12.80;45.04;95669.50;4990445;28;20049;-64
2021/04/01 06:20:47;;;;;;;9.57;2.85;;;;;;;13.11;45.17;95682.09;4990427;28;20030;-62
2021/04/01 06:23:29;;;;;;;8.50;2.20;;;;;;;13.23;44.33;95674.31;4990367;28;20074;-65
2021/04/01 06:25:56;;;;;;;5.03;2.08;;;;;;;13.21;44.32;95650.59;4990482;28;20030;-64
2021/04/01 06:28:41;;;;;;;6.38;2.20;;;;;;;13.43;44.04;95663.06;4992063;28;20109;-64
2021/04/01 06:31:08;;;;;;;8.38;2.20;;;;;;;13.48;43.44;95678.97;4990278;28;20209;-65
2021/04/01 06:33:43;;;;;;;8.40;2.55;;;;;;;13.76;43.08;95681.41;4989765;28;20062;-65
2021/04/01 06:36:16;;;;;;;8.23;2.78;;;;;;;13.85;42.89;95676.88;4990200;28;20073;-64
2021/04/01 06:38:42;;;;;;;9.98;2.10;;;;;;;13.96;42.63;95670.13;4990137;28;20034;-65
2021/04/01 06:41:13;;;;;;;5.47;2.03;;;;;;;13.82;42.24;95653.44;4990050;28;20052;-65
2021/04/01 06:43:48;;;;;;;4.70;2.50;;;;;;;14.27;42.33;95674.59;4991953;28;20026;-64
2021/04/01 06:46:16;;;;;;;7.80;2.20;;;;;;;13.96;41.52;95675.47;4990509;28;20361;-63
2021/04/01 06:51:20;;;;;;;5.75;2.00;;;;;;;14.23;40.89;95668.31;4989937;28;20062;-65
2021/04/01 06:54:05;;;;;;;7.28;2.22;;;;;;;14.70;40.73;95671.16;4990072;28;20042;-65
2021/04/01 06:56:59;;;;;;;12.98;2.72;;;;;;;14.79;40.35;95683.44;4972285;28;20034;-65
2021/04/01 06:59:55;;;;;;;6.75;2.30;;;;;;;14.96;40.53;95671.13;4989281;28;20749;-65
2021/04/01 07:02:31;;;;;;;8.27;1.95;;;;;;;14.98;39.52;95666.22;4989401;28;20531;-67
2021/04/01 07:05:12;;;;;;;4.63;2.80;;;;;;;15.42;39.59;95680.28;4972376;28;20089;-66
2021/04/01 07:07:44;;;;;;;15.60;3.55;;;;;;;15.66;39.10;95682.41;4991444;28;20019;-66
2021/04/01 07:10:26;;;;;;;7.22;2.80;;;;;;;15.72;38.53;95665.06;4990140;28;20080;-66
2021/04/01 07:12:53;;;;;;;6.70;2.47;;;;;;;15.81;38.26;95663.09;4989264;28;20039;-65
2021/04/01 07:15:23;;;;;;;10.30;2.15;;;;;;;16.02;37.15;95681.91;4989433;28;20640;-65
2021/04/01 07:18:00;;;;;;;8.27;2.60;;;;;;;16.18;37.96;95687.50;4989298;28;20092;-65
2021/04/01 07:23:56;;;;;;;10.88;3.05;;;;;;;16.18;37.16;95644.56;4989083;28;20077;-64
2021/04/01 07:48:11;;;;;;;13.65;3.92;;;;;;;16.88;35.70;95681.28;4980615;28;20030;-65
2021/04/01 07:50:39;;;;;;;5.72;2.92;;;;;;;15.99;36.53;95690.63;4988883;28;20046;-66
2021/04/01 07:53:05;;;;;;;8.15;3.15;;;;;;;16.03;36.69;95629.84;4988736;28;20042;-65
2021/04/01 07:55:56;;;;;;;5.28;2.70;;;;;;;16.53;35.69;95680.78;4991081;28;20663;-65
2021/04/01 08:03:57;;;;;;;8.25;3.17;;;;;;;16.41;36.10;95661.13;4978035;28;20488;-66
2021/04/01 08:06:25;;;;;;;9.77;3.20;;;;;;;16.58;35.80;95650.22;4988940;28;20058;-65
2021/04/01 08:08:56;;;;;;;8.38;3.42;;;;;;;16.36;36.29;95636.03;4988423;28;20108;-66
2021/04/01 08:11:29;;;;;;;13.60;3.72;;;;;;;17.01;35.99;95662.53;4988664;28;20081;-66
2021/04/01 08:14:04;;;;;;;4.88;2.92;;;;;;;16.81;36.38;95640.72;4988621;28;20388;-66
2021/04/01 08:16:36;;;;;;;11.05;3.50;;;;;;;16.69;37.01;95661.38;4990788;28;20034;-66
2021/04/01 08:19:03;;;;;;;13.15;4.28;;;;;;;16.80;36.66;95667.94;4988637;28;20513;-65
2021/04/01 08:21:29;;;;;;;13.40;4.63;;;;;;;16.78;36.43;95637.91;4988566;28;20046;-66
2021/04/01 08:24:11;;;;;;;10.52;4.00;;;;;;;17.00;36.68;95669.00;4988951;28;20096;-66
2021/04/01 08:26:44;;;;;;;14.95;4.45;;;;;;;17.28;36.16;95671.88;4988640;28;20042;-66
2021/04/01 08:29:49;;;;;;;14.68;4.60;;;;;;;17.61;35.95;95672.59;4971258;28;20070;-67
2021/04/01 08:35:00;;;;;;;17.40;5.40;;;;;;;17.88;34.74;95667.69;4988721;28;20088;-66
2021/04/01 08:37:30;;;;;;;14.95;5.07;;;;;;;17.77;34.71;95655.81;4990366;28;20082;-67
2021/04/01 08:39:58;;;;;;;34.17;7.03;;;;;;;17.64;34.75;95661.16;4967781;28;20031;-66
2021/04/01 08:42:55;;;;;;;14.90;5.82;;;;;;;18.09;34.37;95662.97;4968991;28;20064;-67
2021/04/01 08:45:45;;;;;;;16.95;6.45;;;;;;;18.09;34.06;95662.97;4981861;28;20041;-68
2021/04/01 08:48:28;;;;;;;16.38;5.60;;;;;;;18.58;33.42;95662.03;4988274;28;20049;-67
2021/04/01 08:51:18;;;;;;;15.27;6.05;;;;;;;18.40;33.75;95654.25;4988484;28;20034;-66
2021/04/01 08:53:44;;;;;;;29.13;8.00;;;;;;;18.47;33.38;95664.44;4988421;28;20058;-68
2021/04/01 08:56:44;;;;;;;18.27;6.47;;;;;;;18.57;33.44;95638.94;4988192;28;20043;-66
2021/04/01 08:59:24;;;;;;;16.48;6.70;;;;;;;18.83;33.38;95627.72;4979001;28;20121;-68
2021/04/01 09:01:52;;;;;;;12.55;5.68;;;;;;;18.98;32.95;95643.16;4991628;28;20034;-65
2021/04/01 09:04:25;;;;;;;18.90;6.75;;;;;;;19.03;33.31;95642.13;4994075;28;20054;-67
2021/04/01 09:06:55;;;;;;;16.65;6.43;;;;;;;18.99;32.95;95635.84;4991526;28;20038;-67
2021/04/01 09:09:31;;;;;;;14.93;6.60;;;;;;;19.19;33.90;95622.16;4991678;28;20532;-67
2021/04/01 09:12:14;;;;;;;19.55;6.72;;;;;;;19.71;33.54;95636.53;4991719;28;20034;-68
2021/04/01 09:14:46;;;;;;;17.20;6.78;;;;;;;19.69;34.12;95617.19;4991684;28;20039;-66
2021/04/01 09:17:13;;;;;;;15.40;6.68;;;;;;;19.48;33.24;95607.44;4991351;28;20530;-66
2021/04/01 09:19:41;;;;;;;23.38;6.38;;;;;;;19.99;32.45;95628.28;4993582;28;20022;-67
2021/04/01 09:22:30;;;;;;;13.90;6.70;;;;;;;20.12;32.74;95624.34;4974072;28;20196;-67
2021/04/01 09:24:58;;;;;;;13.48;5.85;;;;;;;20.35;32.36;95624.44;4990308;28;20048;-67
2021/04/01 09:27:24;;;;;;;19.05;7.22;;;;;;;20.08;31.89;95595.69;4991299;28;20046;-68
2021/04/01 09:30:00;;;;;;;11.40;6.50;;;;;;;19.98;32.39;95572.72;4973660;28;20035;-69
2021/04/01 09:32:27;;;;;;;17.70;7.03;;;;;;;20.29;31.18;95603.47;4970624;28;20039;-67
2021/04/01 09:34:55;;;;;;;15.88;6.50;;;;;;;20.23;31.39;95574.03;4955594;28;20515;-67
2021/04/01 09:37:20;;;;;;;15.10;6.90;;;;;;;20.56;31.60;95618.72;4975562;28;20108;-67
2021/04/01 09:39:46;;;;;;;12.77;6.38;;;;;;;20.30;31.63;95592.28;4974924;28;20556;-68
2021/04/01 09:42:14;;;;;;;11.93;6.75;;;;;;;20.75;30.36;95609.81;4962584;28;20053;-67
2021/04/01 09:45:01;;;;;;;11.90;6.60;;;;;;;20.52;30.81;95598.94;4971849;28;20396;-67
2021/04/01 09:47:35;;;;;;;15.07;5.63;;;;;;;20.79;30.10;95590.97;4971328;28;20035;-67
2021/04/01 09:50:11;;;;;;;15.90;7.95;;;;;;;20.20;30.04;95603.66;4954071;28;20054;-66
2021/04/01 09:52:41;;;;;;;11.70;6.47;;;;;;;20.86;30.22;95613.50;4973339;28;20026;-66
2021/04/01 09:55:13;;;;;;;11.63;5.85;;;;;;;20.61;30.54;95612.22;4990793;28;20042;-63
2021/04/01 09:57:47;;;;;;;11.93;6.18;;;;;;;20.30;30.47;95586.88;4970149;28;20069;-67
2021/04/01 10:00:27;;;;;;;15.50;7.80;;;;;;;20.28;30.43;95610.78;4983247;28;20046;-66
2021/04/01 10:03:03;;;;;;;16.17;7.00;;;;;;;20.42;29.85;95583.25;4963718;28;20039;-66
2021/04/01 10:05:32;;;;;;;12.77;6.68;;;;;;;20.21;30.38;95610.63;4953899;28;20507;-63
2021/04/01 10:07:58;;;;;;;12.68;6.95;;;;;;;20.59;30.14;95609.91;4972162;28;20492;-65
2021/04/01 10:10:42;;;;;;;13.82;7.40;;;;;;;20.40;31.01;95601.75;4992805;28;20018;-63
2021/04/01 10:13:18;;;;;;;13.13;7.43;;;;;;;20.47;30.53;95607.31;4990407;28;20034;-62
2021/04/01 10:15:44;;;;;;;20.02;7.03;;;;;;;20.62;30.93;95603.75;4990591;28;20053;-64
2021/04/01 10:18:10;;;;;;;12.27;6.25;;;;;;;20.54;30.44;95596.66;4978506;28;20030;-64
2021/04/01 10:20:36;;;;;;;13.32;6.47;;;;;;;20.84;30.33;95596.06;4977571;28;20039;-67
2021/04/01 10:23:07;;;;;;;10.80;6.38;;;;;;;20.95;29.81;95583.53;4970157;28;20400;-65
2021/04/01 10:25:37;;;;;;;19.20;7.00;;;;;;;20.71;30.12;95561.06;4973093;28;20023;-64
2021/04/01 10:28:12;;;;;;;12.77;6.15;;;;;;;20.49;30.23;95557.19;4988932;28;20043;-65
2021/04/01 10:30:37;;;;;;;10.93;7.35;;;;;;;20.79;30.42;95575.53;4975385;28;20093;-65
2021/04/01 10:33:08;;;;;;;12.00;6.50;;;;;;;21.02;30.87;95572.81;4980959;28;20074;-67
2021/04/01 10:35:36;;;;;;;14.33;6.87;;;;;;;20.72;31.21;95569.97;4983691;28;20031;-66
2021/04/01 10:38:04;;;;;;;12.13;5.80;;;;;;;20.87;31.11;95560.19;4955132;28;20271;-67
2021/04/01 10:40:33;;;;;;;14.10;5.10;;;;;;;20.68;30.24;95567.22;4974251;28;20026;-66
2021/04/01 10:43:02;;;;;;;11.02;5.40;;;;;;;21.20;30.63;95549.56;4971726;28;20046;-69
2021/04/01 10:45:37;;;;;;;16.13;5.60;;;;;;;21.20;31.01;95562.31;4984400;28;20047;-66
2021/04/01 10:48:33;;;;;;;16.98;6.90;;;;;;;20.96;30.84;95550.72;4979266;28;20117;-66
2021/04/01 10:51:04;;;;;;;13.23;5.53;;;;;;;21.20;30.47;95552.28;4970608;28;20112;-69
2021/04/01 10:53:31;;;;;;;11.88;6.30;;;;;;;21.42;30.59;95548.00;4970425;28;20073;-65
2021/04/01 10:56:07;;;;;;;16.25;6.15;;;;;;;21.48;30.74;95534.94;4953067;28;20023;-64
2021/04/01 10:58:33;;;;;;;10.50;6.18;;;;;;;21.58;30.47;95522.72;4972054;28;20101;-64
2021/04/01 11:01:01;;;;;;;11.75;5.75;;;;;;;21.39;31.25;95527.06;4988376;28;20057;-67
2021/04/01 11:03:30;;;;;;;11.63;6.10;;;;;;;21.43;31.29;95510.91;4989550;28;20400;-68
2021/04/01 11:05:57;;;;;;;15.52;6.35;;;;;;;21.49;31.42;95525.66;4962638;28;20050;-66
2021/04/01 11:08:25;;;;;;;13.18;5.40;;;;;;;21.15;30.63;95516.63;4975149;28;20037;-67
2021/04/01 11:11:01;;;;;;;11.43;5.60;;;;;;;21.25;30.70;95521.44;4971117;28;20065;-67
2021/04/01 11:13:34;;;;;;;15.20;6.13;;;;;;;21.59;30.02;95519.63;4971825;28;20034;-69
2021/04/01 11:16:04;;;;;;;18.65;5.43;;;;;;;22.05;29.63;95524.88;4971110;28;20671;-69
2021/04/01 11:18:30;;;;;;;15.45;5.20;;;;;;;21.70;29.82;95520.59;4989204;28;20050;-69
2021/04/01 11:20:57;;;;;;;16.98;4.72;;;;;;;21.89;29.85;95510.75;4989428;28;20113;-70
2021/04/01 11:23:25;;;;;;;15.23;5.70;;;;;;;21.92;29.90;95502.69;4984316;28;20544;-68
2021/04/01 11:25:58;;;;;;;12.93;5.40;;;;;;;21.85;29.39;95499.09;4953356;28;20085;-68
2021/04/01 11:28:50;;;;;;;11.73;4.63;;;;;;;21.75;29.68;95504.03;4991069;28;20026;-69
2021/04/01 11:31:22;;;;;;;9.02;4.60;;;;;;;21.90;29.71;95501.47;4988290;28;20050;-69
2021/04/01 11:33:47;;;;;;;9.38;4.70;;;;;;;22.54;29.17;95502.25;5002896;23;20408;-68
2021/04/01 11:36:17;;;;;;;14.35;4.65;;;;;;;22.74;28.60;95479.22;4997155;28;20034;-65
2021/04/01 11:38:47;;;;;;;10.82;5.15;;;;;;;22.27;29.74;95486.09;5020525;28;20459;-65
2021/04/01 11:41:15;;;;;;;8.57;4.78;;;;;;;22.78;28.28;95465.69;5029363;28;20037;-68
2021/04/01 11:43:41;;;;;;;7.18;4.45;;;;;;;23.15;27.89;95490.06;5031494;28;20021;-66
2021/04/01 11:46:27;;;;;;;11.00;5.07;;;;;;;22.22;29.34;95489.16;5029802;28;20034;-66
2021/04/01 11:48:55;;;;;;;13.00;5.13;;;;;;;22.30;29.38;95485.34;5028174;28;20030;-68
2021/04/01 11:51:30;;;;;;;8.75;4.43;;;;;;;22.22;29.28;95445.03;5027635;28;20049;-66
2021/04/01 11:53:55;;;;;;;6.78;4.60;;;;;;;22.23;29.39;95479.09;5029654;28;20034;-67
2021/04/01 11:56:22;;;;;;;9.35;4.18;;;;;;;22.91;28.97;95479.78;5029529;28;20044;-67
2021/04/01 11:58:48;;;;;;;8.18;4.47;;;;;;;23.66;27.28;95467.53;5027481;28;20029;-67
2021/04/01 12:04:02;;;;;;;8.00;4.40;;;;;;;22.81;26.67;95478.50;5029630;28;20476;-64
2021/04/01 12:06:29;;;;;;;7.53;3.50;;;;;;;22.90;27.24;95476.28;5029365;28;20033;-67
2021/04/01 12:08:56;;;;;;;6.40;3.00;;;;;;;22.78;27.04;95469.19;5028727;28;20503;-68
2021/04/01 12:11:22;;;;;;;9.93;3.55;;;;;;;22.63;27.23;95474.84;5027032;28;20133;-66
2021/04/01 12:13:47;;;;;;;8.55;3.20;;;;;;;22.47;27.38;95465.03;5029264;28;20105;-66
2021/04/01 12:16:18;;;;;;;7.97;3.60;;;;;;;22.57;27.29;95431.00;5031191;28;20371;-66
2021/04/01 12:18:45;;;;;;;9.77;3.38;;;;;;;22.70;27.53;95456.72;5028978;28;20037;-67
2021/04/01 12:21:11;;;;;;;8.18;3.25;;;;;;;22.98;27.18;95444.56;5028560;28;20049;-68
2021/04/01 12:23:57;;;;;;;5.15;3.20;;;;;;;23.35;26.66;95433.59;5029274;28;20495;-66
2021/04/01 12:26:24;;;;;;;9.35;3.40;;;;;;;23.68;25.91;95445.41;5029423;28;20404;-70
2021/04/01 12:28:57;;;;;;;7.35;4.65;;;;;;;23.20;26.57;95427.28;5029181;28;20121;-69
2021/04/01 12:31:36;;;;;;;8.25;3.95;;;;;;;22.82;27.63;95429.28;5031205;28;20109;-68
2021/04/01 12:34:01;;;;;;;8.32;4.55;;;;;;;22.55;28.78;95430.63;5031883;28;20393;-67
2021/04/01 12:36:32;;;;;;;8.10;4.20;;;;;;;22.71;28.41;95405.97;5031848;28;20040;-68
2021/04/01 12:38:57;;;;;;;14.30;4.20;;;;;;;22.55;28.30;95396.16;5033058;28;20045;-68
2021/04/01 12:41:35;;;;;;;16.15;4.50;;;;;;;22.90;28.44;95426.69;5032812;28;21051;-68
2021/04/01 12:44:01;;;;;;;9.32;3.80;;;;;;;23.54;27.19;95416.22;5032758;28;20033;-68
2021/04/01 12:46:39;;;;;;;5.50;3.88;;;;;;;23.29;26.56;95406.03;5033428;28;20010;-68
2021/04/01 12:49:06;;;;;;;10.30;3.60;;;;;;;23.25;27.00;95415.31;5032402;28;20483;-68
2021/04/01 12:51:52;;;;;;;7.53;3.00;;;;;;;23.09;26.85;95407.44;5031759;28;20054;-64
2021/04/01 12:54:24;;;;;;;9.00;3.45;;;;;;;23.29;26.69;95418.81;5031260;28;20034;-65
2021/04/01 12:56:56;;;;;;;6.65;3.85;;;;;;;23.39;26.85;95409.97;5032340;28;20030;-66
2021/04/01 12:59:40;;;;;;;9.40;3.67;;;;;;;23.28;26.58;95390.88;5032496;28;20060;-65